createdAt,value
2023-01-19T00:01:35.681Z,1.20
2023-01-19T00:05:23.564Z,1.40
2023-01-19T00:09:11.413Z,1.90
2023-01-19T00:12:59.718Z,1.50
2023-01-19T00:16:47.876Z,1.40
2023-01-19T00:20:35.630Z,1.20
2023-01-19T00:24:23.419Z,1.00
2023-01-19T00:28:03.834Z,1.40
2023-01-19T00:31:51.693Z,2.20
2023-01-19T00:35:39.222Z,2.20
2023-01-19T00:39:26.989Z,0.90
2023-01-19T00:43:14.663Z,1.10
2023-01-19T00:47:02.473Z,1.20
2023-01-19T00:50:51.184Z,1.80
2023-01-19T00:54:38.965Z,1.40
2023-01-19T00:58:26.684Z,1.10
2023-01-19T01:02:14.600Z,1.80
2023-01-19T01:06:02.722Z,1.20
2023-01-19T01:09:51.544Z,2.00
2023-01-19T01:13:39.321Z,1.60
2023-01-19T01:17:27.197Z,1.20
2023-01-19T01:21:17.836Z,1.40
2023-01-19T01:25:05.619Z,2.50
2023-01-19T01:28:53.368Z,1.50
2023-01-19T01:32:41.172Z,1.70
2023-01-19T01:36:29.133Z,3.30
2023-01-19T01:40:16.930Z,1.50
2023-01-19T01:44:04.647Z,2.40
2023-01-19T01:47:52.598Z,2.70
2023-01-19T01:51:46.178Z,4.10
2023-01-19T01:55:33.915Z,3.60
2023-01-19T01:59:21.620Z,1.80
2023-01-19T02:03:12.318Z,1.90
2023-01-19T02:06:59.763Z,3.60
2023-01-19T02:10:46.156Z,3.80
2023-01-19T02:14:33.881Z,2.30
2023-01-19T02:18:21.635Z,2.20
2023-01-19T02:22:21.284Z,2.60
2023-01-19T02:26:09.536Z,3.60
2023-01-19T02:30:00.190Z,2.60
2023-01-19T02:33:47.964Z,4.50
2023-01-19T02:37:51.027Z,3.60
2023-01-19T02:41:38.804Z,1.50
2023-01-19T02:45:26.577Z,2.30
2023-01-19T02:49:14.426Z,2.70
2023-01-19T02:53:02.579Z,4.40
2023-01-19T02:56:52.842Z,4.50
2023-01-19T03:00:58.764Z,4.30
2023-01-19T03:04:46.613Z,2.30
2023-01-19T03:08:46.366Z,2.00
2023-01-19T03:12:36.835Z,3.10
2023-01-19T03:16:30.399Z,2.70
2023-01-19T03:20:18.356Z,3.20
2023-01-19T03:24:06.087Z,7.10
2023-01-19T03:27:53.808Z,2.00
2023-01-19T03:31:41.490Z,3.50
2023-01-19T03:35:29.401Z,2.20
2023-01-19T03:39:17.243Z,2.80
2023-01-19T03:43:07.856Z,2.90
2023-01-19T03:46:55.601Z,1.40
2023-01-19T03:50:43.391Z,6.20
2023-01-19T03:54:31.120Z,3.20
2023-01-19T03:58:19.330Z,1.90
2023-01-19T04:02:07.182Z,2.70
2023-01-19T04:05:55.029Z,2.00
2023-01-19T04:09:41.885Z,4.00
2023-01-19T04:13:29.632Z,5.50
2023-01-19T04:17:17.465Z,3.90
2023-01-19T04:21:05.374Z,2.30
2023-01-19T04:24:53.191Z,4.50
2023-01-19T04:28:41.053Z,1.90
2023-01-19T04:32:29.841Z,2.30
2023-01-19T04:36:17.665Z,2.20
2023-01-19T04:40:05.870Z,3.80
2023-01-19T04:43:53.637Z,6.60
2023-01-19T04:47:41.412Z,4.30
2023-01-19T04:51:29.205Z,4.10
2023-01-19T04:55:17.100Z,4.40
2023-01-19T04:59:04.821Z,7.10
2023-01-19T05:02:52.836Z,3.60
2023-01-19T05:06:41.001Z,6.00
2023-01-19T05:10:29.466Z,3.40
2023-01-19T05:14:17.332Z,2.60
2023-01-19T05:18:05.136Z,3.20
2023-01-19T05:21:53.072Z,4.60
2023-01-19T05:25:40.829Z,3.60
2023-01-19T05:29:28.577Z,4.90
2023-01-19T05:33:16.064Z,9.60
2023-01-19T05:37:03.853Z,6.10
2023-01-19T05:40:51.979Z,9.90
2023-01-19T05:44:39.971Z,14.70
2023-01-19T05:48:27.522Z,18.60
2023-01-19T05:52:14.093Z,14.50
2023-01-19T05:56:02.150Z,7.20
2023-01-19T05:59:50.055Z,8.80
2023-01-19T06:03:38.418Z,6.00
2023-01-19T06:07:29.315Z,6.70
2023-01-19T06:11:17.528Z,3.80
2023-01-19T06:15:06.023Z,6.60
2023-01-19T06:18:53.867Z,7.10
2023-01-19T06:22:43.489Z,7.00
2023-01-19T06:26:30.799Z,7.50
2023-01-19T06:30:19.471Z,5.40
2023-01-19T06:34:07.901Z,4.00
2023-01-19T06:37:55.738Z,9.00
2023-01-19T06:41:44.655Z,6.50
2023-01-19T06:45:33.251Z,15.30
2023-01-19T06:49:21.581Z,6.00
2023-01-19T06:53:11.180Z,12.10
2023-01-19T06:57:01.558Z,6.00
2023-01-19T07:00:51.102Z,10.70
2023-01-19T07:04:39.328Z,13.20
2023-01-19T07:08:27.276Z,15.40
2023-01-19T07:12:15.308Z,11.70
2023-01-19T07:16:03.766Z,8.90
2023-01-19T07:19:51.618Z,6.30
2023-01-19T07:23:39.922Z,8.90
2023-01-19T07:27:27.926Z,9.30
2023-01-19T07:31:16.022Z,6.70
2023-01-19T07:35:03.904Z,6.60
2023-01-19T07:38:52.567Z,14.30
2023-01-19T07:42:40.738Z,8.00
2023-01-19T07:46:28.556Z,8.40
2023-01-19T07:50:18.444Z,10.00
2023-01-19T07:54:07.074Z,9.00
2023-01-19T07:57:55.814Z,10.70
2023-01-19T08:01:46.607Z,11.70
2023-01-19T08:05:34.559Z,10.60
2023-01-19T08:09:23.077Z,9.40
2023-01-19T08:13:12.077Z,8.40
2023-01-19T08:16:59.865Z,13.40
2023-01-19T08:20:49.072Z,9.10
2023-01-19T08:24:38.268Z,10.60
2023-01-19T08:28:26.988Z,9.90
2023-01-19T08:32:15.396Z,16.70
2023-01-19T08:36:04.375Z,14.90
2023-01-19T08:39:52.343Z,14.30
2023-01-19T08:43:41.238Z,15.70
2023-01-19T08:47:29.119Z,14.70
2023-01-19T08:51:17.179Z,13.30
2023-01-19T08:55:06.041Z,10.20
2023-01-19T09:03:03.188Z,12.80
2023-01-19T09:06:51.843Z,14.00
2023-01-19T09:10:39.616Z,11.10
2023-01-19T09:14:27.597Z,12.60
2023-01-19T09:18:16.021Z,15.00
2023-01-19T09:22:04.118Z,9.90
2023-01-19T09:25:51.885Z,15.50
2023-01-19T09:29:40.863Z,10.70
2023-01-19T09:33:28.835Z,12.50
2023-01-19T09:37:18.394Z,10.30
2023-01-19T09:41:06.912Z,13.20
2023-01-19T09:45:00.793Z,14.00
2023-01-19T09:48:59.073Z,9.30
2023-01-19T09:52:52.121Z,11.40
2023-01-19T09:56:40.281Z,14.40
2023-01-19T10:00:31.004Z,12.00
2023-01-19T10:04:18.886Z,11.20
2023-01-19T10:08:15.041Z,13.30
2023-01-19T10:12:08.767Z,12.00
2023-01-19T10:16:16.189Z,12.70
2023-01-19T10:20:16.339Z,13.00
2023-01-19T10:24:23.235Z,15.60
2023-01-19T10:28:14.183Z,11.10
2023-01-19T10:32:02.087Z,13.90
2023-01-19T10:35:53.075Z,13.90
2023-01-19T10:39:41.136Z,11.90
2023-01-19T10:43:29.297Z,15.20
2023-01-19T10:47:19.336Z,15.60
2023-01-19T10:51:16.991Z,12.80
2023-01-19T10:55:05.282Z,11.00
2023-01-19T10:59:05.018Z,13.20
2023-01-19T11:03:02.064Z,10.10
2023-01-19T11:06:56.128Z,10.60
2023-01-19T11:10:50.421Z,13.60
2023-01-19T11:14:44.176Z,11.00
2023-01-19T11:18:32.224Z,10.60
2023-01-19T11:22:20.070Z,12.10
2023-01-19T11:26:07.454Z,9.50
2023-01-19T11:29:55.254Z,9.00
2023-01-19T11:33:44.484Z,10.70
2023-01-19T11:37:35.250Z,7.30
2023-01-19T11:41:23.202Z,11.30
2023-01-19T11:45:35.823Z,11.80
2023-01-19T11:49:32.748Z,14.30
2023-01-19T11:53:26.446Z,10.70
2023-01-19T11:57:14.287Z,11.50
2023-01-19T12:01:08.207Z,11.70
2023-01-19T12:05:11.047Z,12.40
2023-01-19T12:08:59.948Z,11.90
2023-01-19T12:12:53.651Z,10.20
2023-01-19T12:17:31.773Z,14.40
2023-01-19T12:21:04.216Z,16.20
2023-01-19T12:25:10.575Z,15.20
2023-01-19T12:28:58.360Z,12.40
2023-01-19T12:32:52.084Z,14.60
2023-01-19T12:36:56.409Z,11.10
2023-01-19T12:40:44.238Z,12.70
2023-01-19T12:44:47.212Z,12.90
2023-01-19T12:48:40.410Z,13.00
2023-01-19T12:52:28.499Z,18.60
2023-01-19T12:56:34.505Z,12.90
2023-01-19T13:00:27.152Z,21.10
2023-01-19T13:04:14.985Z,20.70
2023-01-19T13:08:03.136Z,14.70
2023-01-19T13:12:00.658Z,13.90
2023-01-19T13:16:05.646Z,7.90
2023-01-19T13:20:05.799Z,8.60
2023-01-19T13:24:06.115Z,7.80
2023-01-19T13:27:53.990Z,11.20
2023-01-19T13:31:42.070Z,8.10
2023-01-19T13:35:35.942Z,11.40
2023-01-19T13:39:18.502Z,5.90
2023-01-19T13:43:11.124Z,9.60
2023-01-19T13:46:58.899Z,14.20
2023-01-19T13:50:47.517Z,8.00
2023-01-19T13:54:36.395Z,11.30
2023-01-19T13:58:31.445Z,12.00
2023-01-19T14:02:22.432Z,9.80
2023-01-19T14:06:22.588Z,9.80
2023-01-19T14:10:16.494Z,13.00
2023-01-19T14:14:04.264Z,11.70
2023-01-19T14:17:58.091Z,12.60
2023-01-19T14:22:04.581Z,4.90
2023-01-19T14:25:52.600Z,9.20
2023-01-19T14:30:01.785Z,6.50
2023-01-19T14:33:49.561Z,4.90
2023-01-19T14:37:37.487Z,6.40
2023-01-19T14:41:25.421Z,7.10
2023-01-19T14:45:16.062Z,7.80
2023-01-19T14:49:04.240Z,7.10
2023-01-19T14:53:02.268Z,9.70
2023-01-19T14:56:52.901Z,4.90
2023-01-19T15:00:41.148Z,4.50
2023-01-19T15:04:29.857Z,13.80
2023-01-19T15:08:17.780Z,4.60
2023-01-19T15:12:11.605Z,5.90
2023-01-19T15:15:59.995Z,4.50
2023-01-19T15:19:52.083Z,8.20
2023-01-19T15:23:39.881Z,17.40
2023-01-19T15:27:28.147Z,23.90
2023-01-19T15:31:20.425Z,46.50
2023-01-19T15:35:09.391Z,9.50
2023-01-19T15:38:57.385Z,5.90
2023-01-19T15:42:45.411Z,2.40
2023-01-19T15:46:39.574Z,1.70
2023-01-19T15:50:27.489Z,2.90
2023-01-19T15:54:16.295Z,4.40
2023-01-19T15:58:04.447Z,2.60
2023-01-19T16:01:55.549Z,6.60
2023-01-19T16:05:44.530Z,3.10
2023-01-19T16:09:34.211Z,5.70
2023-01-19T16:13:22.566Z,3.40
2023-01-19T16:17:14.200Z,6.00
2023-01-19T16:21:00.916Z,2.40
2023-01-19T16:24:48.753Z,1.50
2023-01-19T16:28:37.498Z,4.20
2023-01-19T16:32:26.141Z,3.90
2023-01-19T16:36:14.268Z,3.30
2023-01-19T16:40:02.306Z,2.10
2023-01-19T16:43:51.561Z,2.50
2023-01-19T16:47:41.384Z,1.70
2023-01-19T16:51:39.139Z,2.50
2023-01-19T16:55:27.108Z,2.70
2023-01-19T16:59:16.142Z,4.30
2023-01-19T17:03:06.263Z,12.00
2023-01-19T17:06:55.100Z,3.60
2023-01-19T17:10:43.573Z,5.30
2023-01-19T17:14:35.168Z,2.40
2023-01-19T17:18:23.536Z,2.00
2023-01-19T17:22:11.499Z,3.20
2023-01-19T17:26:00.496Z,1.50
2023-01-19T17:29:41.437Z,1.50
2023-01-19T17:33:31.300Z,1.50
2023-01-19T17:37:22.147Z,1.40
2023-01-19T17:41:10.129Z,2.20
2023-01-19T17:45:00.005Z,2.90
2023-01-19T17:48:50.567Z,2.90
2023-01-19T17:52:39.347Z,4.70
2023-01-19T17:56:27.214Z,2.30
2023-01-19T18:00:15.291Z,1.60
2023-01-19T18:04:03.256Z,3.60
2023-01-19T18:07:52.137Z,4.50
2023-01-19T18:11:40.259Z,1.90
2023-01-19T18:15:28.366Z,2.80
2023-01-19T18:19:16.261Z,1.20
2023-01-19T18:23:04.270Z,1.90
2023-01-19T18:26:54.275Z,1.70
2023-01-19T18:30:47.709Z,3.00
2023-01-19T18:34:35.651Z,1.00
2023-01-19T18:38:23.482Z,1.50
2023-01-19T18:42:11.358Z,1.10
2023-01-19T18:46:00.321Z,3.30
2023-01-19T18:49:49.100Z,4.40
2023-01-19T18:53:38.082Z,5.20
2023-01-19T18:57:26.154Z,3.30
2023-01-19T19:01:14.598Z,2.00
2023-01-19T19:05:03.382Z,1.70
2023-01-19T19:08:52.126Z,4.10
2023-01-19T19:12:40.124Z,2.50
2023-01-19T19:16:29.848Z,4.20
2023-01-19T19:20:17.805Z,9.20
2023-01-19T19:24:06.385Z,53.80
2023-01-19T19:27:54.955Z,7.10
2023-01-19T19:31:46.017Z,16.10
2023-01-19T19:35:35.139Z,8.00
2023-01-19T19:39:22.805Z,4.40
2023-01-19T19:43:12.535Z,3.90
2023-01-19T19:47:01.394Z,3.80
2023-01-19T19:50:50.604Z,7.50
2023-01-19T19:54:39.390Z,6.50
2023-01-19T19:58:27.274Z,4.60
2023-01-19T20:02:15.208Z,10.00
2023-01-19T20:06:03.118Z,13.50
2023-01-19T20:09:50.967Z,8.70
2023-01-19T20:13:40.133Z,21.60
2023-01-19T20:17:28.062Z,14.40
2023-01-19T20:21:19.291Z,12.70
2023-01-19T20:25:07.176Z,9.30
2023-01-19T20:28:55.282Z,5.60
2023-01-19T20:32:43.350Z,6.90
2023-01-19T20:36:31.992Z,7.50
2023-01-19T20:40:19.938Z,7.10
2023-01-19T20:44:07.851Z,5.10
2023-01-19T20:47:55.657Z,7.10
2023-01-19T20:51:43.837Z,5.80
2023-01-19T20:55:35.480Z,9.50
2023-01-19T20:59:23.415Z,5.90
2023-01-19T21:03:11.284Z,5.00
2023-01-19T21:06:59.083Z,5.00
2023-01-19T21:10:46.925Z,5.50
2023-01-19T21:14:34.813Z,3.00
2023-01-19T21:18:22.632Z,3.50
2023-01-19T21:22:10.979Z,4.00
2023-01-19T21:25:58.905Z,3.80
2023-01-19T21:29:46.809Z,3.90
2023-01-19T21:33:34.710Z,2.80
2023-01-19T21:37:22.515Z,4.60
2023-01-19T21:41:10.433Z,6.80
2023-01-19T21:44:58.307Z,10.20
2023-01-19T21:48:46.195Z,4.70
2023-01-19T21:52:34.466Z,7.50
2023-01-19T21:56:24.874Z,5.60
2023-01-19T22:00:12.748Z,6.90
2023-01-19T22:07:28.362Z,3.10
2023-01-19T22:11:17.325Z,2.60
2023-01-19T22:15:05.642Z,5.00
2023-01-19T22:18:53.326Z,4.80
2023-01-19T22:22:41.715Z,5.30
2023-01-19T22:26:29.504Z,7.10
2023-01-19T22:30:17.411Z,5.40
2023-01-19T22:34:05.420Z,5.90
2023-01-19T22:37:53.230Z,5.10
2023-01-19T22:41:40.999Z,6.10
2023-01-19T22:45:28.846Z,4.30
2023-01-19T22:49:16.596Z,6.70
2023-01-19T22:53:06.121Z,4.50
2023-01-19T22:56:54.900Z,3.90
2023-01-19T23:00:45.331Z,2.50
2023-01-19T23:04:33.262Z,7.80
2023-01-19T23:08:21.838Z,7.50
2023-01-19T23:12:12.257Z,10.80
2023-01-19T23:16:00.191Z,16.10
2023-01-19T23:19:47.996Z,7.20
2023-01-19T23:23:35.772Z,10.20
2023-01-19T23:27:23.471Z,6.60
2023-01-19T23:31:11.472Z,5.40
2023-01-19T23:34:59.535Z,6.10
2023-01-19T23:38:47.325Z,4.30
2023-01-19T23:42:35.014Z,5.90
2023-01-19T23:46:22.892Z,5.90
2023-01-19T23:50:11.016Z,4.40
2023-01-19T23:53:58.783Z,4.40
2023-01-19T23:57:46.497Z,5.60
